sensor_id;sensor_type;location;lat;lon;timestamp;pressure;altitude;pressure_sealevel;temperature;humidity
71778;BME280;59609;52.430;4.668;2024-03-02T00:00:00;99735.47;;;7.63;100.00
71778;BME280;59609;52.430;4.668;2024-03-02T00:02:27;99736.53;;;7.38;100.00
71778;BME280;59609;52.430;4.668;2024-03-02T00:04:52;99758.66;;;7.28;100.00
71778;BME280;59609;52.430;4.668;2024-03-02T00:07:18;99758.31;;;7.15;100.00
71778;BME280;59609;52.430;4.668;2024-03-02T00:09:44;99756.28;;;7.09;100.00
71778;BME280;59609;52.430;4.668;2024-03-02T00:12:11;99744.63;;;6.91;100.00
71778;BME280;59609;52.430;4.668;2024-03-02T00:14:41;99725.78;;;6.71;100.00
71778;BME280;59609;52.430;4.668;2024-03-02T00:17:24;99766.19;;;6.86;100.00
71778;BME280;59609;52.430;4.668;2024-03-02T00:19:51;99746.66;;;6.72;100.00
71778;BME280;59609;52.430;4.668;2024-03-02T00:22:16;99759.16;;;6.75;100.00
71778;BME280;59609;52.430;4.668;2024-03-02T00:24:42;99746.31;;;6.59;100.00
71778;BME280;59609;52.430;4.668;2024-03-02T00:27:07;99752.81;;;6.66;100.00
71778;BME280;59609;52.430;4.668;2024-03-02T00:29:36;99755.19;;;6.61;100.00
71778;BME280;59609;52.430;4.668;2024-03-02T00:32:02;99767.88;;;6.62;100.00
71778;BME280;59609;52.430;4.668;2024-03-02T00:34:27;99754.16;;;6.54;100.00
71778;BME280;59609;52.430;4.668;2024-03-02T00:36:53;99766.78;;;6.47;100.00
71778;BME280;59609;52.430;4.668;2024-03-02T00:39:18;99785.97;;;6.55;100.00
71778;BME280;59609;52.430;4.668;2024-03-02T00:41:44;99790.91;;;6.52;100.00
71778;BME280;59609;52.430;4.668;2024-03-02T00:44:12;99794.19;;;6.55;100.00
71778;BME280;59609;52.430;4.668;2024-03-02T00:46:39;99766.59;;;6.41;100.00
71778;BME280;59609;52.430;4.668;2024-03-02T00:49:18;99779.44;;;6.48;100.00
71778;BME280;59609;52.430;4.668;2024-03-02T00:51:52;99777.06;;;6.45;100.00
71778;BME280;59609;52.430;4.668;2024-03-02T00:54:22;99785.59;;;6.42;100.00
71778;BME280;59609;52.430;4.668;2024-03-02T00:56:50;99787.97;;;6.37;100.00
71778;BME280;59609;52.430;4.668;2024-03-02T00:59:16;99763.28;;;6.21;100.00
71778;BME280;59609;52.430;4.668;2024-03-02T01:01:42;99778.72;;;6.30;100.00
71778;BME280;59609;52.430;4.668;2024-03-02T01:04:08;99782.81;;;6.26;100.00
71778;BME280;59609;52.430;4.668;2024-03-02T01:06:34;99775.97;;;6.22;100.00
71778;BME280;59609;52.430;4.668;2024-03-02T01:09:00;99781.56;;;6.20;100.00
71778;BME280;59609;52.430;4.668;2024-03-02T01:11:26;99777.63;;;6.15;100.00
71778;BME280;59609;52.430;4.668;2024-03-02T01:13:54;99782.78;;;6.18;100.00
71778;BME280;59609;52.430;4.668;2024-03-02T01:16:20;99757.03;;;5.95;100.00
71778;BME280;59609;52.430;4.668;2024-03-02T01:18:45;99786.03;;;6.13;100.00
71778;BME280;59609;52.430;4.668;2024-03-02T01:21:11;99773.31;;;6.04;100.00
71778;BME280;59609;52.430;4.668;2024-03-02T01:23:36;99760.78;;;5.94;100.00
71778;BME280;59609;52.430;4.668;2024-03-02T01:26:02;99756.38;;;5.93;100.00
71778;BME280;59609;52.430;4.668;2024-03-02T01:28:27;99771.78;;;6.02;100.00
71778;BME280;59609;52.430;4.668;2024-03-02T01:30:53;99770.56;;;5.96;100.00
71778;BME280;59609;52.430;4.668;2024-03-02T01:33:19;99772.09;;;5.99;100.00
71778;BME280;59609;52.430;4.668;2024-03-02T01:35:45;99781.66;;;5.95;100.00
71778;BME280;59609;52.430;4.668;2024-03-02T01:38:10;99764.03;;;5.89;100.00
71778;BME280;59609;52.430;4.668;2024-03-02T01:40:36;99772.38;;;5.88;100.00
71778;BME280;59609;52.430;4.668;2024-03-02T01:43:03;99767.22;;;5.85;100.00
71778;BME280;59609;52.430;4.668;2024-03-02T01:45:29;99802.97;;;5.91;100.00
71778;BME280;59609;52.430;4.668;2024-03-02T01:47:55;99803.16;;;5.90;100.00
71778;BME280;59609;52.430;4.668;2024-03-02T01:50:31;99788.53;;;5.81;100.00
71778;BME280;59609;52.430;4.668;2024-03-02T01:52:57;99814.78;;;5.92;100.00
71778;BME280;59609;52.430;4.668;2024-03-02T01:55:23;99832.91;;;5.93;100.00
71778;BME280;59609;52.430;4.668;2024-03-02T01:57:49;99825.66;;;5.84;100.00
71778;BME280;59609;52.430;4.668;2024-03-02T02:00:19;99796.53;;;5.75;100.00
71778;BME280;59609;52.430;4.668;2024-03-02T02:02:45;99758.59;;;5.63;100.00
71778;BME280;59609;52.430;4.668;2024-03-02T02:05:11;99828.13;;;5.95;100.00
71778;BME280;59609;52.430;4.668;2024-03-02T02:07:36;99820.09;;;5.93;100.00
71778;BME280;59609;52.430;4.668;2024-03-02T02:10:02;99815.63;;;5.92;100.00
71778;BME280;59609;52.430;4.668;2024-03-02T02:12:27;99796.94;;;5.80;100.00
71778;BME280;59609;52.430;4.668;2024-03-02T02:14:53;99831.66;;;5.87;100.00
71778;BME280;59609;52.430;4.668;2024-03-02T02:17:19;99826.13;;;5.79;100.00
71778;BME280;59609;52.430;4.668;2024-03-02T02:19:44;99815.66;;;5.75;100.00
71778;BME280;59609;52.430;4.668;2024-03-02T02:22:10;99829.38;;;5.83;100.00
71778;BME280;59609;52.430;4.668;2024-03-02T02:24:39;99819.94;;;5.77;100.00
71778;BME280;59609;52.430;4.668;2024-03-02T02:27:04;99817.94;;;5.79;100.00
71778;BME280;59609;52.430;4.668;2024-03-02T02:29:30;99789.66;;;5.62;100.00
71778;BME280;59609;52.430;4.668;2024-03-02T02:31:55;99831.59;;;5.79;100.00
71778;BME280;59609;52.430;4.668;2024-03-02T02:34:20;99829.00;;;5.78;100.00
71778;BME280;59609;52.430;4.668;2024-03-02T02:36:46;99821.53;;;5.80;100.00
71778;BME280;59609;52.430;4.668;2024-03-02T02:39:14;99833.00;;;5.83;100.00
71778;BME280;59609;52.430;4.668;2024-03-02T02:41:41;99833.84;;;5.84;100.00
71778;BME280;59609;52.430;4.668;2024-03-02T02:44:06;99830.03;;;5.77;100.00
71778;BME280;59609;52.430;4.668;2024-03-02T02:46:32;99827.66;;;5.82;100.00
71778;BME280;59609;52.430;4.668;2024-03-02T02:48:58;99817.94;;;5.79;100.00
71778;BME280;59609;52.430;4.668;2024-03-02T02:51:23;99842.78;;;5.94;100.00
71778;BME280;59609;52.430;4.668;2024-03-02T02:53:51;99821.88;;;5.85;100.00
71778;BME280;59609;52.430;4.668;2024-03-02T02:56:16;99835.47;;;5.94;100.00
71778;BME280;59609;52.430;4.668;2024-03-02T02:58:42;99817.16;;;5.87;100.00
71778;BME280;59609;52.430;4.668;2024-03-02T03:01:07;99834.44;;;5.95;100.00
71778;BME280;59609;52.430;4.668;2024-03-02T03:03:33;99843.19;;;5.99;100.00
71778;BME280;59609;52.430;4.668;2024-03-02T03:05:59;99839.25;;;6.01;100.00
71778;BME280;59609;52.430;4.668;2024-03-02T03:08:24;99836.00;;;5.98;100.00
71778;BME280;59609;52.430;4.668;2024-03-02T03:10:50;99826.91;;;5.89;100.00
71778;BME280;59609;52.430;4.668;2024-03-02T03:13:15;99845.25;;;6.05;100.00
71778;BME280;59609;52.430;4.668;2024-03-02T03:15:41;99837.38;;;6.02;100.00
71778;BME280;59609;52.430;4.668;2024-03-02T03:18:06;99817.69;;;5.90;100.00
71778;BME280;59609;52.430;4.668;2024-03-02T03:20:33;99828.31;;;6.01;100.00
71778;BME280;59609;52.430;4.668;2024-03-02T03:22:59;99841.84;;;6.03;100.00
71778;BME280;59609;52.430;4.668;2024-03-02T03:25:24;99849.38;;;6.09;100.00
71778;BME280;59609;52.430;4.668;2024-03-02T03:27:50;99836.72;;;6.00;100.00
71778;BME280;59609;52.430;4.668;2024-03-02T03:30:18;99825.78;;;6.00;100.00
71778;BME280;59609;52.430;4.668;2024-03-02T03:32:43;99835.84;;;5.99;100.00
71778;BME280;59609;52.430;4.668;2024-03-02T03:35:08;99840.59;;;5.97;100.00
71778;BME280;59609;52.430;4.668;2024-03-02T03:37:34;99839.38;;;5.92;100.00
71778;BME280;59609;52.430;4.668;2024-03-02T03:40:00;99838.19;;;5.94;100.00
71778;BME280;59609;52.430;4.668;2024-03-02T03:42:26;99860.47;;;6.07;100.00
71778;BME280;59609;52.430;4.668;2024-03-02T03:44:52;99859.94;;;6.04;100.00
71778;BME280;59609;52.430;4.668;2024-03-02T03:47:17;99856.00;;;5.98;100.00
71778;BME280;59609;52.430;4.668;2024-03-02T03:49:43;99861.84;;;6.03;100.00
71778;BME280;59609;52.430;4.668;2024-03-02T03:52:08;99865.06;;;5.99;100.00
71778;BME280;59609;52.430;4.668;2024-03-02T03:54:33;99865.00;;;5.91;100.00
71778;BME280;59609;52.430;4.668;2024-03-02T03:56:59;99864.91;;;5.83;100.00
71778;BME280;59609;52.430;4.668;2024-03-02T03:59:24;99852.84;;;5.67;100.00
71778;BME280;59609;52.430;4.668;2024-03-02T04:01:50;99857.22;;;5.60;100.00
71778;BME280;59609;52.430;4.668;2024-03-02T04:04:15;99863.88;;;5.58;100.00
71778;BME280;59609;52.430;4.668;2024-03-02T04:06:40;99869.75;;;5.63;100.00
71778;BME280;59609;52.430;4.668;2024-03-02T04:09:06;99871.22;;;5.57;100.00
71778;BME280;59609;52.430;4.668;2024-03-02T04:11:32;99869.53;;;5.56;100.00
71778;BME280;59609;52.430;4.668;2024-03-02T04:13:57;99851.09;;;5.41;100.00
71778;BME280;59609;52.430;4.668;2024-03-02T04:16:23;99877.00;;;5.54;100.00
71778;BME280;59609;52.430;4.668;2024-03-02T04:18:50;99827.94;;;5.27;100.00
71778;BME280;59609;52.430;4.668;2024-03-02T04:21:16;99884.03;;;5.57;100.00
71778;BME280;59609;52.430;4.668;2024-03-02T04:23:41;99877.84;;;5.55;100.00
71778;BME280;59609;52.430;4.668;2024-03-02T04:26:06;99891.06;;;5.59;100.00
71778;BME280;59609;52.430;4.668;2024-03-02T04:28:32;99890.00;;;5.60;100.00
71778;BME280;59609;52.430;4.668;2024-03-02T04:30:58;99879.41;;;5.57;100.00
71778;BME280;59609;52.430;4.668;2024-03-02T04:33:23;99878.88;;;5.54;100.00
71778;BME280;59609;52.430;4.668;2024-03-02T04:35:48;99885.91;;;5.56;100.00
71778;BME280;59609;52.430;4.668;2024-03-02T04:38:14;99883.72;;;5.60;100.00
71778;BME280;59609;52.430;4.668;2024-03-02T04:40:39;99857.28;;;5.43;100.00
71778;BME280;59609;52.430;4.668;2024-03-02T04:43:04;99892.06;;;5.58;100.00
71778;BME280;59609;52.430;4.668;2024-03-02T04:45:30;99896.34;;;5.61;100.00
71778;BME280;59609;52.430;4.668;2024-03-02T04:47:55;99885.28;;;5.45;100.00
71778;BME280;59609;52.430;4.668;2024-03-02T04:50:21;99896.44;;;5.51;100.00
71778;BME280;59609;52.430;4.668;2024-03-02T04:52:46;99887.16;;;5.44;100.00
71778;BME280;59609;52.430;4.668;2024-03-02T04:55:11;99905.50;;;5.52;100.00
71778;BME280;59609;52.430;4.668;2024-03-02T04:57:52;99909.00;;;5.44;100.00
71778;BME280;59609;52.430;4.668;2024-03-02T05:00:19;99899.13;;;5.43;100.00
71778;BME280;59609;52.430;4.668;2024-03-02T05:02:46;99865.66;;;5.24;100.00
71778;BME280;59609;52.430;4.668;2024-03-02T05:05:11;99910.50;;;5.39;100.00
71778;BME280;59609;52.430;4.668;2024-03-02T05:07:36;99886.38;;;5.34;100.00
71778;BME280;59609;52.430;4.668;2024-03-02T05:10:02;99908.00;;;5.45;100.00
71778;BME280;59609;52.430;4.668;2024-03-02T05:12:27;99907.13;;;5.45;100.00
71778;BME280;59609;52.430;4.668;2024-03-02T05:15:09;99920.09;;;5.43;100.00
71778;BME280;59609;52.430;4.668;2024-03-02T05:17:35;99932.22;;;5.40;100.00
71778;BME280;59609;52.430;4.668;2024-03-02T05:20:01;99920.66;;;5.29;100.00
71778;BME280;59609;52.430;4.668;2024-03-02T05:22:27;99928.84;;;5.29;100.00
71778;BME280;59609;52.430;4.668;2024-03-02T05:24:52;99932.75;;;5.26;100.00
71778;BME280;59609;52.430;4.668;2024-03-02T05:27:18;99926.19;;;5.19;100.00
71778;BME280;59609;52.430;4.668;2024-03-02T05:29:43;99929.47;;;5.23;100.00
71778;BME280;59609;52.430;4.668;2024-03-02T05:32:08;99928.06;;;5.18;100.00
71778;BME280;59609;52.430;4.668;2024-03-02T05:34:34;99935.47;;;5.26;100.00
71778;BME280;59609;52.430;4.668;2024-03-02T05:37:01;99923.16;;;5.22;100.00
71778;BME280;59609;52.430;4.668;2024-03-02T05:39:26;99939.75;;;5.29;100.00
71778;BME280;59609;52.430;4.668;2024-03-02T05:41:51;99934.31;;;5.29;100.00
71778;BME280;59609;52.430;4.668;2024-03-02T05:44:17;99939.63;;;5.30;100.00
71778;BME280;59609;52.430;4.668;2024-03-02T05:46:43;99926.97;;;5.29;100.00
71778;BME280;59609;52.430;4.668;2024-03-02T05:49:09;99915.97;;;5.21;100.00
71778;BME280;59609;52.430;4.668;2024-03-02T05:51:35;99933.31;;;5.30;100.00
71778;BME280;59609;52.430;4.668;2024-03-02T05:54:00;99933.84;;;5.33;100.00
71778;BME280;59609;52.430;4.668;2024-03-02T05:56:25;99931.44;;;5.30;100.00
71778;BME280;59609;52.430;4.668;2024-03-02T05:58:51;99933.53;;;5.36;100.00
71778;BME280;59609;52.430;4.668;2024-03-02T06:01:35;99921.75;;;5.36;100.00
71778;BME280;59609;52.430;4.668;2024-03-02T06:04:00;99948.34;;;5.51;100.00
71778;BME280;59609;52.430;4.668;2024-03-02T06:06:26;99949.06;;;5.53;100.00
71778;BME280;59609;52.430;4.668;2024-03-02T06:08:52;99922.28;;;5.39;100.00
71778;BME280;59609;52.430;4.668;2024-03-02T06:11:19;99935.78;;;5.41;100.00
71778;BME280;59609;52.430;4.668;2024-03-02T06:13:44;99951.94;;;5.52;100.00
71778;BME280;59609;52.430;4.668;2024-03-02T06:16:10;99951.25;;;5.50;100.00
71778;BME280;59609;52.430;4.668;2024-03-02T06:18:35;99929.38;;;5.32;100.00
71778;BME280;59609;52.430;4.668;2024-03-02T06:21:01;99951.72;;;5.45;100.00
71778;BME280;59609;52.430;4.668;2024-03-02T06:23:26;99966.38;;;5.44;100.00
71778;BME280;59609;52.430;4.668;2024-03-02T06:25:52;99962.50;;;5.47;100.00
71778;BME280;59609;52.430;4.668;2024-03-02T06:28:17;99954.91;;;5.41;100.00
71778;BME280;59609;52.430;4.668;2024-03-02T06:30:43;99959.91;;;5.45;100.00
71778;BME280;59609;52.430;4.668;2024-03-02T06:33:09;99959.53;;;5.40;100.00
71778;BME280;59609;52.430;4.668;2024-03-02T06:35:34;99968.50;;;5.50;100.00
71778;BME280;59609;52.430;4.668;2024-03-02T06:38:00;99969.50;;;5.49;100.00
71778;BME280;59609;52.430;4.668;2024-03-02T06:40:26;99969.19;;;5.52;100.00
71778;BME280;59609;52.430;4.668;2024-03-02T06:42:51;99974.00;;;5.41;100.00
71778;BME280;59609;52.430;4.668;2024-03-02T06:45:17;99984.16;;;5.48;100.00
71778;BME280;59609;52.430;4.668;2024-03-02T06:47:42;99979.72;;;5.47;100.00
71778;BME280;59609;52.430;4.668;2024-03-02T06:50:08;99982.31;;;5.49;100.00
71778;BME280;59609;52.430;4.668;2024-03-02T06:52:34;99978.69;;;5.48;100.00
71778;BME280;59609;52.430;4.668;2024-03-02T06:55:00;99971.22;;;5.50;100.00
71778;BME280;59609;52.430;4.668;2024-03-02T06:57:25;99973.34;;;5.56;100.00
71778;BME280;59609;52.430;4.668;2024-03-02T06:59:50;99991.81;;;5.62;100.00
71778;BME280;59609;52.430;4.668;2024-03-02T07:02:19;99958.56;;;5.49;100.00
71778;BME280;59609;52.430;4.668;2024-03-02T07:04:44;99973.03;;;5.59;100.00
71778;BME280;59609;52.430;4.668;2024-03-02T07:07:10;99993.94;;;5.68;100.00
71778;BME280;59609;52.430;4.668;2024-03-02T07:09:36;99969.34;;;5.68;100.00
71778;BME280;59609;52.430;4.668;2024-03-02T07:12:01;99990.56;;;5.75;100.00
71778;BME280;59609;52.430;4.668;2024-03-02T07:14:27;99980.50;;;5.75;100.00
71778;BME280;59609;52.430;4.668;2024-03-02T07:17:12;99996.19;;;5.91;100.00
71778;BME280;59609;52.430;4.668;2024-03-02T07:19:38;100000.66;;;5.92;100.00
71778;BME280;59609;52.430;4.668;2024-03-02T07:22:06;99996.91;;;5.93;100.00
71778;BME280;59609;52.430;4.668;2024-03-02T07:24:31;99995.88;;;5.94;100.00
71778;BME280;59609;52.430;4.668;2024-03-02T07:26:56;99997.59;;;5.95;100.00
71778;BME280;59609;52.430;4.668;2024-03-02T07:29:22;99992.84;;;5.97;100.00
71778;BME280;59609;52.430;4.668;2024-03-02T07:31:47;100001.75;;;5.99;100.00
71778;BME280;59609;52.430;4.668;2024-03-02T07:34:13;100016.09;;;6.01;100.00
71778;BME280;59609;52.430;4.668;2024-03-02T07:36:38;100012.53;;;6.00;100.00
71778;BME280;59609;52.430;4.668;2024-03-02T07:39:04;100009.63;;;6.02;100.00
71778;BME280;59609;52.430;4.668;2024-03-02T07:41:29;100012.97;;;6.13;100.00
71778;BME280;59609;52.430;4.668;2024-03-02T07:43:55;100013.19;;;6.20;100.00
71778;BME280;59609;52.430;4.668;2024-03-02T07:46:20;100020.91;;;6.25;100.00
71778;BME280;59609;52.430;4.668;2024-03-02T07:48:45;100024.59;;;6.15;100.00
71778;BME280;59609;52.430;4.668;2024-03-02T07:51:11;100031.31;;;6.21;100.00
71778;BME280;59609;52.430;4.668;2024-03-02T07:53:36;100024.47;;;6.17;100.00
71778;BME280;59609;52.430;4.668;2024-03-02T07:56:02;100018.13;;;6.16;100.00
71778;BME280;59609;52.430;4.668;2024-03-02T07:58:27;100040.78;;;6.27;100.00
71778;BME280;59609;52.430;4.668;2024-03-02T08:00:53;100024.81;;;6.22;100.00
71778;BME280;59609;52.430;4.668;2024-03-02T08:03:18;100038.72;;;6.29;100.00
71778;BME280;59609;52.430;4.668;2024-03-02T08:05:44;100041.09;;;6.24;100.00
71778;BME280;59609;52.430;4.668;2024-03-02T08:08:09;100050.53;;;6.29;100.00
71778;BME280;59609;52.430;4.668;2024-03-02T08:10:35;100020.75;;;6.26;100.00
71778;BME280;59609;52.430;4.668;2024-03-02T08:13:01;100030.41;;;6.38;100.00
71778;BME280;59609;52.430;4.668;2024-03-02T08:15:26;100022.84;;;6.32;100.00
71778;BME280;59609;52.430;4.668;2024-03-02T08:17:52;100054.06;;;6.47;100.00
71778;BME280;59609;52.430;4.668;2024-03-02T08:20:17;100040.78;;;6.52;100.00
71778;BME280;59609;52.430;4.668;2024-03-02T08:22:44;100054.22;;;6.71;100.00
71778;BME280;59609;52.430;4.668;2024-03-02T08:25:10;100036.00;;;6.80;100.00
71778;BME280;59609;52.430;4.668;2024-03-02T08:27:36;100036.22;;;6.95;100.00
71778;BME280;59609;52.430;4.668;2024-03-02T08:30:02;100029.25;;;7.00;100.00
71778;BME280;59609;52.430;4.668;2024-03-02T08:32:31;100035.91;;;6.98;100.00
71778;BME280;59609;52.430;4.668;2024-03-02T08:34:56;100031.81;;;7.02;100.00
71778;BME280;59609;52.430;4.668;2024-03-02T08:37:22;100005.50;;;7.09;100.00
71778;BME280;59609;52.430;4.668;2024-03-02T08:39:47;100037.22;;;7.19;100.00
71778;BME280;59609;52.430;4.668;2024-03-02T08:42:15;100013.81;;;7.33;100.00
71778;BME280;59609;52.430;4.668;2024-03-02T08:44:40;100025.97;;;7.39;100.00
71778;BME280;59609;52.430;4.668;2024-03-02T08:47:06;100034.66;;;7.26;100.00
71778;BME280;59609;52.430;4.668;2024-03-02T08:49:32;100011.88;;;7.25;100.00
71778;BME280;59609;52.430;4.668;2024-03-02T08:51:57;100023.72;;;7.34;100.00
71778;BME280;59609;52.430;4.668;2024-03-02T08:54:22;100049.22;;;7.35;100.00
71778;BME280;59609;52.430;4.668;2024-03-02T08:56:49;100041.44;;;7.56;100.00
71778;BME280;59609;52.430;4.668;2024-03-02T08:59:15;100037.19;;;7.69;100.00
71778;BME280;59609;52.430;4.668;2024-03-02T09:01:41;100050.91;;;7.86;100.00
71778;BME280;59609;52.430;4.668;2024-03-02T09:04:07;100039.59;;;7.81;100.00
71778;BME280;59609;52.430;4.668;2024-03-02T09:06:34;100049.22;;;7.93;100.00
71778;BME280;59609;52.430;4.668;2024-03-02T09:08:59;100021.06;;;7.74;100.00
71778;BME280;59609;52.430;4.668;2024-03-02T09:11:25;100048.38;;;8.08;100.00
71778;BME280;59609;52.430;4.668;2024-03-02T09:13:50;100054.56;;;8.26;100.00
71778;BME280;59609;52.430;4.668;2024-03-02T09:16:16;100017.50;;;7.90;100.00
71778;BME280;59609;52.430;4.668;2024-03-02T09:18:41;100049.75;;;7.96;100.00
71778;BME280;59609;52.430;4.668;2024-03-02T09:21:07;100051.63;;;8.12;100.00
71778;BME280;59609;52.430;4.668;2024-03-02T09:23:33;100044.59;;;8.01;100.00
71778;BME280;59609;52.430;4.668;2024-03-02T09:25:59;100066.38;;;8.19;100.00
71778;BME280;59609;52.430;4.668;2024-03-02T09:28:24;100056.94;;;8.62;100.00
71778;BME280;59609;52.430;4.668;2024-03-02T09:30:50;100062.34;;;9.02;100.00
71778;BME280;59609;52.430;4.668;2024-03-02T09:33:15;100056.38;;;8.91;100.00
71778;BME280;59609;52.430;4.668;2024-03-02T09:35:40;100057.38;;;9.06;100.00
71778;BME280;59609;52.430;4.668;2024-03-02T09:38:06;100037.34;;;8.89;100.00
71778;BME280;59609;52.430;4.668;2024-03-02T09:40:31;100053.34;;;9.24;100.00
71778;BME280;59609;52.430;4.668;2024-03-02T09:42:57;100053.97;;;8.96;100.00
71778;BME280;59609;52.430;4.668;2024-03-02T09:45:24;100046.59;;;8.96;100.00
71778;BME280;59609;52.430;4.668;2024-03-02T09:47:50;100062.59;;;8.76;100.00
71778;BME280;59609;52.430;4.668;2024-03-02T09:50:16;100062.59;;;8.68;100.00
71778;BME280;59609;52.430;4.668;2024-03-02T09:52:42;100032.28;;;8.54;100.00
71778;BME280;59609;52.430;4.668;2024-03-02T09:55:09;100069.75;;;9.02;100.00
71778;BME280;59609;52.430;4.668;2024-03-02T09:57:34;100061.38;;;8.87;100.00
71778;BME280;59609;52.430;4.668;2024-03-02T10:00:00;100071.13;;;8.98;100.00
71778;BME280;59609;52.430;4.668;2024-03-02T10:02:25;100071.09;;;9.06;100.00
71778;BME280;59609;52.430;4.668;2024-03-02T10:04:51;100086.66;;;8.66;100.00
71778;BME280;59609;52.430;4.668;2024-03-02T10:07:18;100045.47;;;8.58;100.00
71778;BME280;59609;52.430;4.668;2024-03-02T10:09:46;100088.19;;;8.77;100.00
71778;BME280;59609;52.430;4.668;2024-03-02T10:12:14;100071.53;;;8.70;100.00
71778;BME280;59609;52.430;4.668;2024-03-02T10:14:40;100070.00;;;8.60;100.00
71778;BME280;59609;52.430;4.668;2024-03-02T10:17:08;100070.09;;;9.07;100.00
71778;BME280;59609;52.430;4.668;2024-03-02T10:19:34;100087.38;;;9.23;100.00
71778;BME280;59609;52.430;4.668;2024-03-02T10:22:04;100084.16;;;9.51;100.00
71778;BME280;59609;52.430;4.668;2024-03-02T10:24:36;100069.00;;;9.16;100.00
71778;BME280;59609;52.430;4.668;2024-03-02T10:27:07;100088.81;;;9.50;100.00
71778;BME280;59609;52.430;4.668;2024-03-02T10:29:32;100076.69;;;9.37;100.00
71778;BME280;59609;52.430;4.668;2024-03-02T10:32:02;100088.47;;;9.45;100.00
71778;BME280;59609;52.430;4.668;2024-03-02T10:34:27;100078.63;;;9.59;100.00
71778;BME280;59609;52.430;4.668;2024-03-02T10:36:54;100069.06;;;9.77;100.00
71778;BME280;59609;52.430;4.668;2024-03-02T10:39:20;100082.63;;;9.48;100.00
71778;BME280;59609;52.430;4.668;2024-03-02T10:41:49;100080.03;;;9.86;100.00
71778;BME280;59609;52.430;4.668;2024-03-02T10:44:17;100081.22;;;9.60;100.00
71778;BME280;59609;52.430;4.668;2024-03-02T10:46:43;100064.66;;;10.22;100.00
71778;BME280;59609;52.430;4.668;2024-03-02T10:49:10;100068.84;;;10.41;100.00
71778;BME280;59609;52.430;4.668;2024-03-02T10:51:36;100054.25;;;10.09;100.00
71778;BME280;59609;52.430;4.668;2024-03-02T10:54:03;100063.06;;;10.27;100.00
71778;BME280;59609;52.430;4.668;2024-03-02T10:56:31;100054.19;;;10.77;100.00
71778;BME280;59609;52.430;4.668;2024-03-02T10:59:12;100066.81;;;10.72;100.00
71778;BME280;59609;52.430;4.668;2024-03-02T11:01:43;100057.34;;;10.37;100.00
71778;BME280;59609;52.430;4.668;2024-03-02T11:04:09;100057.13;;;10.39;100.00
71778;BME280;59609;52.430;4.668;2024-03-02T11:06:39;100061.78;;;10.75;100.00
71778;BME280;59609;52.430;4.668;2024-03-02T11:09:07;100053.94;;;10.50;100.00
71778;BME280;59609;52.430;4.668;2024-03-02T11:11:39;100060.81;;;10.68;100.00
71778;BME280;59609;52.430;4.668;2024-03-02T11:14:07;100056.16;;;10.69;100.00
71778;BME280;59609;52.430;4.668;2024-03-02T11:16:38;100065.13;;;10.48;100.00
71778;BME280;59609;52.430;4.668;2024-03-02T11:19:10;100061.50;;;10.70;100.00
71778;BME280;59609;52.430;4.668;2024-03-02T11:21:36;100062.53;;;10.69;100.00
71778;BME280;59609;52.430;4.668;2024-03-02T11:24:28;100059.84;;;10.61;100.00
71778;BME280;59609;52.430;4.668;2024-03-02T11:26:59;100051.38;;;10.48;100.00
71778;BME280;59609;52.430;4.668;2024-03-02T11:32:00;100064.31;;;10.62;100.00
71778;BME280;59609;52.430;4.668;2024-03-02T11:34:30;100055.91;;;10.78;100.00
71778;BME280;59609;52.430;4.668;2024-03-02T11:37:05;100050.50;;;10.85;100.00
71778;BME280;59609;52.430;4.668;2024-03-02T11:39:31;100070.75;;;10.92;100.00
71778;BME280;59609;52.430;4.668;2024-03-02T11:41:57;100064.97;;;11.16;100.00
71778;BME280;59609;52.430;4.668;2024-03-02T11:44:27;100061.06;;;11.11;100.00
71778;BME280;59609;52.430;4.668;2024-03-02T11:47:05;100040.59;;;11.34;100.00
71778;BME280;59609;52.430;4.668;2024-03-02T11:49:49;100037.16;;;11.76;100.00
71778;BME280;59609;52.430;4.668;2024-03-02T11:52:17;100045.09;;;12.01;100.00
71778;BME280;59609;52.430;4.668;2024-03-02T11:54:45;100050.56;;;11.65;100.00
71778;BME280;59609;52.430;4.668;2024-03-02T11:57:21;100051.63;;;11.64;100.00
71778;BME280;59609;52.430;4.668;2024-03-02T11:59:51;100056.72;;;11.81;100.00
71778;BME280;59609;52.430;4.668;2024-03-02T12:02:18;100032.16;;;11.51;100.00
71778;BME280;59609;52.430;4.668;2024-03-02T12:04:45;100056.72;;;11.81;100.00
71778;BME280;59609;52.430;4.668;2024-03-02T12:07:12;100061.03;;;11.69;100.00
71778;BME280;59609;52.430;4.668;2024-03-02T12:09:38;100056.38;;;11.55;100.00
71778;BME280;59609;52.430;4.668;2024-03-02T12:14:33;100035.97;;;11.85;100.00
71778;BME280;59609;52.430;4.668;2024-03-02T12:16:59;100047.06;;;12.07;100.00
71778;BME280;59609;52.430;4.668;2024-03-02T12:19:26;100032.41;;;12.27;100.00
71778;BME280;59609;52.430;4.668;2024-03-02T12:21:55;100036.47;;;12.10;100.00
71778;BME280;59609;52.430;4.668;2024-03-02T12:24:21;100027.59;;;12.36;100.00
71778;BME280;59609;52.430;4.668;2024-03-02T12:26:48;100019.63;;;12.26;100.00
71778;BME280;59609;52.430;4.668;2024-03-02T12:29:14;100028.88;;;11.62;100.00
71778;BME280;59609;52.430;4.668;2024-03-02T12:31:41;100022.03;;;11.72;100.00
71778;BME280;59609;52.430;4.668;2024-03-02T12:34:07;100015.31;;;12.17;100.00
71778;BME280;59609;52.430;4.668;2024-03-02T12:36:39;100017.00;;;12.18;100.00
71778;BME280;59609;52.430;4.668;2024-03-02T12:39:07;100000.38;;;12.12;100.00
71778;BME280;59609;52.430;4.668;2024-03-02T12:41:36;100008.94;;;12.17;100.00
71778;BME280;59609;52.430;4.668;2024-03-02T12:44:01;100002.31;;;12.39;100.00
71778;BME280;59609;52.430;4.668;2024-03-02T12:46:27;100000.34;;;12.54;100.00
71778;BME280;59609;52.430;4.668;2024-03-02T12:48:52;100011.66;;;12.38;100.00
71778;BME280;59609;52.430;4.668;2024-03-02T12:51:18;100010.47;;;12.47;100.00
71778;BME280;59609;52.430;4.668;2024-03-02T12:53:43;100007.16;;;12.30;100.00
71778;BME280;59609;52.430;4.668;2024-03-02T12:56:09;100003.78;;;12.35;100.00